Allenwood, New York
Current Conditions -  °F | °C
As of 11:51 PM on Friday 31 Oct 2014 (Local Time) from KLGA Reporting Station
Light Rain Light Rain  
Wind Chill: 41°   Ceiling: 1300
Heat Index: 49°   Visibility: 9mi
Dew Point: 46°   Wind: 24mph
Humidity: 90%   Direction: 50°NE
Pressure: 29.86"   Gusts: 29mph
Location:  40.786°N, 73.7291°W
Report Text: KLGA 010351Z 05021G25KT 9SM -RA OVC013 09/08 A2986 RMK AO2 PK WND 05028/0311 RAB0256 SLP113 P0003 T00940078
Loading
Personal Weather Stations






























Interactive Weather Map
Tropical Storm Tracking
New forecast layout! Learn more

10-Day Weather Forecast

Advertisements
Track Severe Weather on mobile